createdAt,value
2018-11-28T00:00:17.196Z,27.30
2018-11-28T00:01:17.182Z,26.90
2018-11-28T00:02:17.167Z,29.50
2018-11-28T00:03:17.192Z,28.20
2018-11-28T00:04:17.170Z,25.90
2018-11-28T00:05:17.161Z,28.50
2018-11-28T00:06:17.143Z,28.70
2018-11-28T00:07:17.159Z,28.40
2018-11-28T00:08:17.334Z,27.40
2018-11-28T00:09:17.395Z,30.40
2018-11-28T00:10:17.328Z,27.70
2018-11-28T00:11:17.124Z,28.30
2018-11-28T00:12:17.120Z,29.90
2018-11-28T00:13:17.133Z,28.70
2018-11-28T00:14:17.097Z,27.00
2018-11-28T00:15:17.094Z,28.90
2018-11-28T00:16:17.085Z,29.20
2018-11-28T00:17:17.079Z,27.30
2018-11-28T00:18:17.091Z,27.60
2018-11-28T00:19:17.082Z,27.50
2018-11-28T00:20:17.067Z,26.90
2018-11-28T00:21:17.086Z,28.20
2018-11-28T00:22:17.051Z,29.30
2018-11-28T00:23:17.065Z,29.90
2018-11-28T00:24:17.044Z,27.80
2018-11-28T00:25:17.237Z,29.30
2018-11-28T00:26:17.029Z,28.80
2018-11-28T00:27:17.036Z,30.50
2018-11-28T00:28:17.229Z,29.00
2018-11-28T00:29:17.015Z,26.50
2018-11-28T00:30:18.080Z,27.70
2018-11-28T00:31:17.073Z,31.70
2018-11-28T00:32:17.010Z,28.40
2018-11-28T00:33:17.004Z,27.80
2018-11-28T00:34:16.994Z,28.30
2018-11-28T00:35:16.989Z,29.80
2018-11-28T00:36:16.987Z,27.40
2018-11-28T00:37:16.981Z,30.60
2018-11-28T00:38:16.971Z,30.80
2018-11-28T00:39:17.161Z,29.40
2018-11-28T00:40:16.951Z,28.00
2018-11-28T00:41:16.947Z,27.30
2018-11-28T00:42:16.949Z,30.10
2018-11-28T00:43:17.147Z,28.30
2018-11-28T00:44:16.938Z,29.20
2018-11-28T00:45:16.929Z,27.80
2018-11-28T00:46:16.918Z,31.20
2018-11-28T00:47:16.911Z,28.80
2018-11-28T00:48:16.906Z,28.30
2018-11-28T00:49:17.102Z,29.20
2018-11-28T00:50:16.919Z,29.00
2018-11-28T00:51:16.888Z,29.20
2018-11-28T00:52:16.881Z,29.30
2018-11-28T00:53:17.081Z,28.30
2018-11-28T00:54:17.072Z,29.30
2018-11-28T00:55:16.878Z,31.60
2018-11-28T00:56:16.858Z,30.10
2018-11-28T00:57:16.865Z,30.40
2018-11-28T00:58:16.851Z,28.00
2018-11-28T00:59:16.852Z,30.10
2018-11-28T01:00:16.838Z,30.60
2018-11-28T01:01:16.846Z,30.20
2018-11-28T01:02:17.027Z,29.50
2018-11-28T01:03:16.871Z,27.70
2018-11-28T01:04:16.829Z,30.80
2018-11-28T01:05:16.814Z,30.30
2018-11-28T01:06:16.816Z,28.70
2018-11-28T01:07:16.798Z,28.80
2018-11-28T01:08:16.794Z,28.60
2018-11-28T01:09:16.784Z,28.80
2018-11-28T01:10:16.782Z,29.10
2018-11-28T01:11:16.773Z,30.20
2018-11-28T01:12:16.768Z,30.00
2018-11-28T01:13:16.772Z,30.10
2018-11-28T01:14:16.762Z,29.60
2018-11-28T01:15:16.958Z,30.70
2018-11-28T01:16:16.769Z,29.30
2018-11-28T01:17:16.741Z,32.20
2018-11-28T01:18:16.746Z,29.80
2018-11-28T01:19:16.742Z,31.80
2018-11-28T01:20:16.728Z,29.10
2018-11-28T01:21:16.719Z,28.10
2018-11-28T01:22:16.731Z,29.50
2018-11-28T01:23:16.718Z,30.10
2018-11-28T01:24:16.702Z,28.40
2018-11-28T01:25:16.914Z,30.30
2018-11-28T01:26:16.702Z,28.30
2018-11-28T01:27:16.684Z,29.20
2018-11-28T01:28:16.885Z,31.10
2018-11-28T01:29:16.687Z,32.70
2018-11-28T01:30:16.669Z,28.20
2018-11-28T01:31:16.674Z,29.50
2018-11-28T01:32:16.667Z,31.20
2018-11-28T01:33:16.650Z,30.80
2018-11-28T01:34:16.672Z,31.20
2018-11-28T01:35:16.643Z,31.00
2018-11-28T01:36:16.651Z,31.60
2018-11-28T01:37:16.843Z,30.30
2018-11-28T01:38:16.629Z,28.30
2018-11-28T01:39:16.633Z,28.70
2018-11-28T01:40:16.626Z,29.80
2018-11-28T01:41:16.625Z,29.50
2018-11-28T01:42:16.618Z,29.80
2018-11-28T01:43:16.608Z,30.50
2018-11-28T01:44:16.627Z,31.70
2018-11-28T01:45:16.596Z,31.80
2018-11-28T01:46:16.781Z,32.50
2018-11-28T01:47:16.573Z,32.10
2018-11-28T01:48:16.566Z,32.00
2018-11-28T01:49:16.781Z,31.80
2018-11-28T01:50:16.556Z,28.80
2018-11-28T01:51:16.552Z,31.50
2018-11-28T01:52:16.545Z,30.80
2018-11-28T01:53:16.542Z,30.60
2018-11-28T01:54:16.535Z,29.80
2018-11-28T01:55:16.539Z,31.10
2018-11-28T01:56:16.524Z,31.20
2018-11-28T01:57:16.520Z,33.00
2018-11-28T01:58:16.715Z,31.90
2018-11-28T01:59:16.717Z,31.10
2018-11-28T02:00:16.710Z,29.20
2018-11-28T02:01:16.494Z,31.30
2018-11-28T02:02:16.702Z,31.30
2018-11-28T02:03:16.481Z,31.20
2018-11-28T02:04:16.478Z,31.90
2018-11-28T02:05:16.473Z,31.50
2018-11-28T02:06:16.467Z,31.30
2018-11-28T02:07:16.665Z,30.40
2018-11-28T02:08:16.459Z,31.60
2018-11-28T02:09:16.459Z,29.00
2018-11-28T02:10:16.456Z,34.60
2018-11-28T02:11:16.440Z,33.80
2018-11-28T02:12:16.445Z,30.50
2018-11-28T02:13:16.429Z,33.40
2018-11-28T02:14:16.627Z,31.40
2018-11-28T02:15:16.415Z,32.10
2018-11-28T02:16:16.412Z,31.90
2018-11-28T02:17:16.413Z,31.30
2018-11-28T02:18:16.402Z,31.00
2018-11-28T02:19:16.413Z,29.50
2018-11-28T02:20:16.402Z,32.70
2018-11-28T02:21:16.585Z,31.60
2018-11-28T02:22:16.385Z,31.90
2018-11-28T02:23:16.373Z,33.40
2018-11-28T02:24:16.376Z,33.60
2018-11-28T02:25:16.360Z,31.40
2018-11-28T02:26:16.556Z,32.70
2018-11-28T02:27:16.360Z,32.40
2018-11-28T02:28:16.353Z,32.70
2018-11-28T02:29:16.349Z,32.10
2018-11-28T02:30:16.354Z,32.80
2018-11-28T02:31:16.324Z,32.90
2018-11-28T02:32:16.335Z,32.50
2018-11-28T02:33:16.520Z,31.80
2018-11-28T02:34:16.524Z,32.60
2018-11-28T02:35:16.519Z,31.40
2018-11-28T02:36:16.311Z,32.60
2018-11-28T02:37:16.302Z,30.40
2018-11-28T02:38:16.298Z,30.70
2018-11-28T02:39:16.280Z,32.80
2018-11-28T02:40:16.480Z,32.00
2018-11-28T02:41:16.271Z,31.10
2018-11-28T02:42:16.275Z,30.40
2018-11-28T02:43:16.261Z,31.70
2018-11-28T02:44:16.260Z,33.60
2018-11-28T02:45:16.247Z,32.30
2018-11-28T02:46:16.243Z,30.10
2018-11-28T02:47:16.235Z,33.10
2018-11-28T02:48:16.230Z,32.30
2018-11-28T02:49:16.228Z,32.60
2018-11-28T02:50:16.231Z,32.60
2018-11-28T02:51:16.231Z,30.10
2018-11-28T02:52:16.430Z,32.10
2018-11-28T02:53:16.214Z,33.20
2018-11-28T02:54:16.197Z,29.50
2018-11-28T02:55:16.215Z,31.80
2018-11-28T02:56:16.187Z,33.20
2018-11-28T02:57:16.182Z,31.20
2018-11-28T02:58:16.379Z,34.70
2018-11-28T02:59:16.370Z,31.20
2018-11-28T03:00:16.167Z,33.00
2018-11-28T03:01:16.157Z,32.40
2018-11-28T03:02:16.165Z,31.60
2018-11-28T03:03:16.351Z,31.90
2018-11-28T03:04:16.151Z,32.00
2018-11-28T03:05:16.137Z,31.20
2018-11-28T03:06:16.140Z,33.20
2018-11-28T03:07:16.124Z,32.30
2018-11-28T03:08:16.121Z,31.20
2018-11-28T03:09:16.111Z,30.90
2018-11-28T03:10:16.106Z,32.30
2018-11-28T03:11:16.110Z,31.30
2018-11-28T03:12:16.095Z,31.80
2018-11-28T03:13:16.090Z,30.80
2018-11-28T03:14:16.084Z,31.00
2018-11-28T03:15:16.078Z,33.40
2018-11-28T03:16:16.073Z,32.10
2018-11-28T03:17:16.080Z,31.60
2018-11-28T03:18:16.062Z,31.80
2018-11-28T03:19:16.258Z,31.20
2018-11-28T03:20:16.053Z,30.80
2018-11-28T03:21:16.042Z,30.50
2018-11-28T03:22:16.051Z,34.30
2018-11-28T03:23:16.046Z,30.60
2018-11-28T03:24:16.029Z,31.90
2018-11-28T03:25:16.062Z,29.40
2018-11-28T03:26:16.031Z,31.50
2018-11-28T03:27:16.020Z,30.80
2018-11-28T03:28:16.006Z,31.10
2018-11-28T03:29:16.009Z,32.00
2018-11-28T03:30:16.021Z,31.70
2018-11-28T03:31:16.211Z,29.80
2018-11-28T03:32:15.990Z,31.60
2018-11-28T03:33:15.982Z,30.50
2018-11-28T03:34:15.979Z,31.30
2018-11-28T03:35:15.978Z,31.20
2018-11-28T03:36:15.962Z,35.10
2018-11-28T03:37:15.965Z,32.10
2018-11-28T03:38:15.949Z,32.00
2018-11-28T03:39:15.941Z,29.60
2018-11-28T03:40:15.952Z,31.10
2018-11-28T03:41:15.931Z,31.20
2018-11-28T03:42:15.926Z,34.00
2018-11-28T03:43:15.921Z,31.20
2018-11-28T03:44:15.924Z,30.00
2018-11-28T03:45:15.911Z,33.90
2018-11-28T03:46:15.917Z,33.10
2018-11-28T03:47:15.913Z,32.90
2018-11-28T03:48:15.895Z,31.00
2018-11-28T03:49:15.890Z,32.60
2018-11-28T03:50:15.881Z,29.60
2018-11-28T03:51:15.874Z,33.60
2018-11-28T03:52:15.879Z,32.00
2018-11-28T03:53:16.073Z,31.10
2018-11-28T03:54:15.862Z,33.00
2018-11-28T03:55:15.880Z,31.60
2018-11-28T03:56:15.851Z,31.80
2018-11-28T03:57:15.858Z,32.00
2018-11-28T03:58:16.042Z,30.70
2018-11-28T03:59:15.833Z,33.10
2018-11-28T04:00:15.843Z,32.00
2018-11-28T04:01:16.039Z,30.20
2018-11-28T04:02:15.829Z,30.60
2018-11-28T04:03:16.024Z,32.00
2018-11-28T04:04:15.807Z,29.20
2018-11-28T04:05:15.804Z,32.90
2018-11-28T04:06:15.806Z,32.30
2018-11-28T04:07:15.795Z,32.20
2018-11-28T04:08:15.794Z,29.90
2018-11-28T04:09:15.777Z,31.40
2018-11-28T04:10:15.788Z,29.90
2018-11-28T04:11:15.783Z,31.60
2018-11-28T04:12:15.765Z,29.40
2018-11-28T04:13:15.768Z,32.60
2018-11-28T04:14:15.752Z,31.80
2018-11-28T04:15:15.764Z,34.00
2018-11-28T04:16:15.747Z,33.70
2018-11-28T04:17:15.737Z,30.40
2018-11-28T04:18:15.728Z,32.30
2018-11-28T04:19:15.733Z,32.90
2018-11-28T04:20:15.717Z,32.10
2018-11-28T04:21:15.722Z,31.80
2018-11-28T04:22:15.719Z,31.50
2018-11-28T04:23:15.719Z,34.10
2018-11-28T04:24:15.700Z,31.50
2018-11-28T04:25:15.690Z,32.20
2018-11-28T04:26:15.684Z,30.10
2018-11-28T04:27:15.676Z,32.00
2018-11-28T04:28:15.683Z,32.40
2018-11-28T04:29:15.675Z,31.50
2018-11-28T04:30:15.661Z,31.40
2018-11-28T04:31:15.655Z,30.80
2018-11-28T04:32:15.660Z,31.80
2018-11-28T04:33:15.658Z,31.00
2018-11-28T04:34:15.654Z,31.90
2018-11-28T04:35:15.655Z,31.90
2018-11-28T04:36:15.653Z,30.60
2018-11-28T04:37:15.644Z,32.10
2018-11-28T04:38:15.633Z,32.00
2018-11-28T04:39:15.624Z,30.50
2018-11-28T04:40:15.616Z,29.30
2018-11-28T04:41:15.603Z,30.80
2018-11-28T04:42:15.594Z,31.30
2018-11-28T04:43:15.588Z,33.10
2018-11-28T04:44:15.607Z,30.30
2018-11-28T04:45:15.590Z,31.90
2018-11-28T04:46:15.597Z,30.60
2018-11-28T04:47:15.571Z,31.90
2018-11-28T04:48:15.614Z,30.00
2018-11-28T04:49:15.560Z,31.00
2018-11-28T04:50:15.558Z,31.80
2018-11-28T04:51:15.544Z,32.70
2018-11-28T04:52:15.534Z,33.00
2018-11-28T04:53:15.542Z,32.00
2018-11-28T04:54:15.542Z,32.20
2018-11-28T04:55:15.532Z,32.00
2018-11-28T04:56:15.528Z,31.30
2018-11-28T04:57:15.521Z,33.40
2018-11-28T04:58:15.714Z,33.60
2018-11-28T04:59:15.509Z,30.70
2018-11-28T05:00:15.537Z,33.60
2018-11-28T05:01:15.485Z,33.70
2018-11-28T05:02:15.485Z,31.50
2018-11-28T05:03:15.502Z,33.00
2018-11-28T05:04:15.480Z,32.10
2018-11-28T05:05:15.465Z,34.20
2018-11-28T05:06:15.463Z,34.50
2018-11-28T05:07:15.494Z,33.60
2018-11-28T05:08:15.469Z,33.50
2018-11-28T05:09:15.447Z,33.40
2018-11-28T05:10:15.442Z,35.10
2018-11-28T05:11:15.434Z,34.10
2018-11-28T05:12:15.428Z,33.50
2018-11-28T05:13:15.420Z,34.80
2018-11-28T05:14:15.414Z,33.50
2018-11-28T05:15:15.410Z,32.90
2018-11-28T05:16:15.401Z,35.10
2018-11-28T05:17:15.403Z,33.30
2018-11-28T05:18:15.391Z,34.60
2018-11-28T05:19:15.382Z,35.10
2018-11-28T05:20:15.381Z,34.10
2018-11-28T05:21:15.376Z,35.50
2018-11-28T05:22:15.369Z,34.00
2018-11-28T05:23:15.361Z,30.50
2018-11-28T05:24:15.362Z,32.80
2018-11-28T05:25:15.555Z,34.70
2018-11-28T05:26:15.360Z,32.50
2018-11-28T05:27:15.338Z,33.70
2018-11-28T05:28:15.337Z,35.40
2018-11-28T05:29:15.332Z,33.90
2018-11-28T05:30:15.333Z,34.60
2018-11-28T05:31:15.319Z,34.70
2018-11-28T05:32:15.316Z,33.80
2018-11-28T05:33:15.311Z,35.20
2018-11-28T05:34:15.314Z,34.00
2018-11-28T05:35:15.306Z,36.80
2018-11-28T05:36:15.290Z,33.10
2018-11-28T05:37:15.296Z,34.20
2018-11-28T05:38:15.280Z,33.20
2018-11-28T05:39:15.272Z,32.30
2018-11-28T05:40:15.267Z,34.00
2018-11-28T05:41:15.263Z,33.60
2018-11-28T05:42:15.256Z,35.60
2018-11-28T05:43:15.261Z,31.50
2018-11-28T05:44:15.249Z,32.10
2018-11-28T05:45:15.246Z,33.80
2018-11-28T05:46:15.232Z,34.20
2018-11-28T05:47:15.237Z,35.50
2018-11-28T05:48:15.275Z,33.30
2018-11-28T05:49:48.637Z,32.70
2018-11-28T05:50:15.215Z,33.70
2018-11-28T05:51:15.205Z,34.10
2018-11-28T05:52:15.200Z,32.30
2018-11-28T05:53:15.196Z,33.00
2018-11-28T05:54:15.199Z,34.10
2018-11-28T05:55:15.185Z,33.10
2018-11-28T05:56:15.180Z,33.60
2018-11-28T05:57:15.174Z,34.50
2018-11-28T05:58:15.165Z,32.20
2018-11-28T05:59:15.163Z,32.90
2018-11-28T06:00:15.154Z,31.90
2018-11-28T06:02:59.110Z,33.90
2018-11-28T06:03:58.881Z,34.00
2018-11-28T06:04:58.879Z,34.20
2018-11-28T06:05:58.872Z,36.70
2018-11-28T06:06:58.872Z,34.50
2018-11-28T06:07:58.861Z,35.30
2018-11-28T06:08:58.850Z,31.70
2018-11-28T06:09:58.844Z,33.50
2018-11-28T06:10:58.838Z,32.40
2018-11-28T06:11:58.834Z,32.50
2018-11-28T06:12:58.827Z,32.30
2018-11-28T06:13:58.830Z,35.90
2018-11-28T06:14:58.817Z,33.30
2018-11-28T06:15:58.836Z,32.70
2018-11-28T06:16:58.806Z,33.30
2018-11-28T06:17:58.800Z,32.70
2018-11-28T06:18:58.806Z,33.40
2018-11-28T06:19:58.864Z,33.20
2018-11-28T06:20:58.789Z,32.50
2018-11-28T06:21:58.780Z,33.80
2018-11-28T06:22:58.772Z,33.70
2018-11-28T06:23:58.971Z,34.00
2018-11-28T06:24:58.772Z,32.60
2018-11-28T06:25:58.765Z,31.60
2018-11-28T06:26:58.751Z,31.80
2018-11-28T06:27:58.742Z,32.80
2018-11-28T06:28:58.739Z,33.30
2018-11-28T06:29:58.939Z,34.60
2018-11-28T06:30:58.727Z,34.40
2018-11-28T06:31:58.732Z,32.60
2018-11-28T06:32:58.716Z,32.20
2018-11-28T06:33:58.712Z,33.60
2018-11-28T06:34:58.715Z,32.90
2018-11-28T06:35:58.714Z,32.20
2018-11-28T06:36:58.697Z,31.90
2018-11-28T06:37:58.706Z,31.60
2018-11-28T06:38:58.699Z,34.80
2018-11-28T06:39:58.681Z,31.70
2018-11-28T06:40:58.674Z,31.40
2018-11-28T06:41:58.666Z,33.10
2018-11-28T06:42:58.676Z,30.60
2018-11-28T06:43:58.684Z,32.30
2018-11-28T06:44:58.661Z,32.90
2018-11-28T06:45:58.658Z,30.40
2018-11-28T06:46:58.840Z,31.20
2018-11-28T06:47:58.647Z,31.40
2018-11-28T06:48:58.645Z,33.50
2018-11-28T06:49:58.637Z,31.90
2018-11-28T06:50:58.619Z,33.20
2018-11-28T06:51:58.632Z,30.70
2018-11-28T06:52:58.607Z,31.00
2018-11-28T06:53:58.801Z,31.30
2018-11-28T06:54:58.596Z,30.50
2018-11-28T06:55:58.590Z,32.30
2018-11-28T06:56:58.586Z,33.70
2018-11-28T06:57:58.581Z,33.10
2018-11-28T06:58:58.578Z,31.90
2018-11-28T06:59:58.569Z,31.50
2018-11-28T07:00:58.580Z,31.00
2018-11-28T07:01:58.571Z,34.00
2018-11-28T07:02:58.577Z,31.50
2018-11-28T07:03:58.572Z,33.80
2018-11-28T07:04:58.542Z,28.90
2018-11-28T07:05:58.534Z,32.70
2018-11-28T07:06:58.535Z,31.30
2018-11-28T07:07:58.522Z,32.20
2018-11-28T07:08:58.542Z,32.00
2018-11-28T07:09:58.528Z,31.70
2018-11-28T07:10:58.534Z,33.20
2018-11-28T07:11:58.500Z,33.00
2018-11-28T07:12:58.497Z,33.90
2018-11-28T07:13:58.511Z,33.10
2018-11-28T07:14:58.485Z,32.90
2018-11-28T07:15:58.495Z,32.90
2018-11-28T07:16:58.476Z,33.30
2018-11-28T07:17:58.503Z,34.20
2018-11-28T07:18:58.476Z,31.40
2018-11-28T07:19:58.463Z,31.30
2018-11-28T07:20:58.667Z,33.90
2018-11-28T07:21:58.469Z,31.30
2018-11-28T07:22:58.462Z,31.60
2018-11-28T07:23:58.437Z,31.60
2018-11-28T07:24:58.433Z,30.40
2018-11-28T07:25:58.428Z,28.10
2018-11-28T07:26:58.420Z,32.30
2018-11-28T07:27:58.430Z,32.80
2018-11-28T07:28:58.434Z,31.50
2018-11-28T07:29:58.416Z,32.30
2018-11-28T07:30:58.409Z,31.10
2018-11-28T07:31:58.429Z,31.30
2018-11-28T07:32:58.423Z,32.30
2018-11-28T07:33:58.382Z,34.30
2018-11-28T07:34:58.393Z,32.10
2018-11-28T07:35:58.377Z,30.30
2018-11-28T07:36:58.387Z,33.20
2018-11-28T07:37:58.369Z,31.50
2018-11-28T07:38:58.370Z,30.80
2018-11-28T07:39:58.363Z,32.20
2018-11-28T07:40:58.359Z,31.80
2018-11-28T07:41:58.355Z,33.40
2018-11-28T07:42:58.341Z,32.50
2018-11-28T07:43:58.550Z,31.10
2018-11-28T07:44:58.322Z,34.30
2018-11-28T07:45:58.518Z,30.60
2018-11-28T07:46:58.514Z,33.70
2018-11-28T07:47:58.308Z,30.90
2018-11-28T07:48:58.301Z,33.50
2018-11-28T07:49:58.297Z,31.30
2018-11-28T07:50:58.294Z,34.10
2018-11-28T07:51:58.499Z,31.80
2018-11-28T07:52:58.289Z,32.00
2018-11-28T07:53:58.295Z,31.50
2018-11-28T07:54:58.272Z,32.40
2018-11-28T07:55:58.265Z,33.60
2018-11-28T07:56:58.257Z,32.50
2018-11-28T07:57:58.278Z,30.00
2018-11-28T07:58:58.260Z,31.80
2018-11-28T07:59:58.241Z,31.80
2018-11-28T08:00:58.238Z,31.00
2018-11-28T08:01:58.251Z,32.60
2018-11-28T08:02:58.244Z,31.40
2018-11-28T08:03:58.220Z,33.10
2018-11-28T08:04:58.227Z,30.40
2018-11-28T08:05:58.212Z,30.60
2018-11-28T08:06:58.215Z,30.70
2018-11-28T08:07:58.199Z,29.40
2018-11-28T08:08:58.206Z,32.30
2018-11-28T08:09:58.191Z,31.90
2018-11-28T08:10:58.187Z,34.10
2018-11-28T08:11:58.177Z,30.50
2018-11-28T08:12:58.184Z,32.80
2018-11-28T08:13:58.170Z,32.10
2018-11-28T08:14:58.166Z,30.40
2018-11-28T08:15:58.158Z,31.70
2018-11-28T08:16:58.168Z,33.10
2018-11-28T08:17:58.158Z,31.80
2018-11-28T08:18:58.153Z,33.40
2018-11-28T08:19:58.142Z,32.10
2018-11-28T08:20:58.134Z,31.20
2018-11-28T08:21:58.125Z,29.60
2018-11-28T08:22:58.121Z,31.00
2018-11-28T08:23:58.115Z,32.00
2018-11-28T08:24:58.113Z,31.80
2018-11-28T08:25:58.121Z,32.40
2018-11-28T08:26:58.101Z,32.10
2018-11-28T08:27:58.239Z,32.10
2018-11-28T08:28:58.106Z,31.90
2018-11-28T08:29:58.086Z,32.00
2018-11-28T08:30:58.077Z,30.50
2018-11-28T08:31:58.072Z,31.80
2018-11-28T08:32:58.085Z,31.10
2018-11-28T08:33:58.086Z,31.80
2018-11-28T08:34:58.082Z,30.90
2018-11-28T08:35:58.055Z,30.20
2018-11-28T08:36:58.047Z,30.80
2018-11-28T08:37:58.056Z,31.00
2018-11-28T08:38:58.036Z,31.30
2018-11-28T08:39:58.031Z,31.00
2018-11-28T08:40:58.032Z,32.80
2018-11-28T08:41:58.036Z,32.60
2018-11-28T08:42:58.034Z,30.90
2018-11-28T08:43:58.024Z,30.80
2018-11-28T08:44:58.006Z,33.50
2018-11-28T08:45:58.035Z,29.00
2018-11-28T08:46:58.006Z,32.40
2018-11-28T08:47:58.016Z,30.20
2018-11-28T08:48:57.988Z,29.90
2018-11-28T08:49:58.008Z,30.90
2018-11-28T08:50:57.986Z,28.20
2018-11-28T08:51:57.972Z,30.10
2018-11-28T08:52:57.998Z,29.50
2018-11-28T08:53:58.164Z,30.50
2018-11-28T08:54:57.955Z,28.10
2018-11-28T08:55:57.989Z,31.30
2018-11-28T08:56:57.947Z,28.20
2018-11-28T08:57:57.952Z,32.50
2018-11-28T08:58:57.933Z,31.60
2018-11-28T08:59:57.959Z,32.60
2018-11-28T09:00:57.927Z,31.10
2018-11-28T09:01:57.932Z,29.00
2018-11-28T09:02:57.942Z,30.20
2018-11-28T09:03:57.919Z,29.30
2018-11-28T09:04:57.926Z,30.70
2018-11-28T09:05:57.923Z,32.30
2018-11-28T09:06:57.896Z,30.30
2018-11-28T09:07:57.889Z,30.10
2018-11-28T09:08:57.894Z,29.30
2018-11-28T09:09:57.882Z,30.60
2018-11-28T09:10:57.875Z,30.20
2018-11-28T09:11:57.873Z,30.90
2018-11-28T09:13:03.539Z,30.40
2018-11-28T09:13:57.860Z,30.40
2018-11-28T09:14:57.860Z,31.10
2018-11-28T09:15:57.850Z,30.90
2018-11-28T09:16:57.846Z,28.70
2018-11-28T09:17:57.839Z,29.20
2018-11-28T09:18:57.844Z,29.70
2018-11-28T09:19:58.030Z,30.00
2018-11-28T09:20:57.826Z,31.00
2018-11-28T09:21:57.831Z,30.40
2018-11-28T09:22:58.024Z,28.90
2018-11-28T09:23:57.809Z,33.50
2018-11-28T09:24:57.814Z,31.00
2018-11-28T09:25:57.821Z,31.60
2018-11-28T09:26:57.814Z,31.00
2018-11-28T09:27:57.801Z,31.40
2018-11-28T09:28:57.785Z,30.70
2018-11-28T09:29:57.775Z,30.50
2018-11-28T09:30:57.774Z,30.50
2018-11-28T09:31:57.782Z,31.40
2018-11-28T09:32:57.790Z,30.80
2018-11-28T09:33:57.766Z,31.50
2018-11-28T09:34:57.768Z,31.40
2018-11-28T09:35:57.747Z,30.60
2018-11-28T09:36:57.740Z,29.70
2018-11-28T09:37:57.943Z,30.20
2018-11-28T09:38:57.741Z,30.70
2018-11-28T09:39:57.726Z,32.90
2018-11-28T09:40:57.731Z,33.00
2018-11-28T09:41:57.737Z,31.70
2018-11-28T09:42:57.711Z,30.30
2018-11-28T09:43:57.716Z,30.40
2018-11-28T09:44:57.712Z,30.60
2018-11-28T09:45:57.694Z,31.20
2018-11-28T09:46:57.701Z,29.40
2018-11-28T09:47:57.685Z,31.50
2018-11-28T09:48:57.688Z,30.40
2018-11-28T09:49:57.674Z,28.40
2018-11-28T09:50:57.671Z,28.40
2018-11-28T09:51:57.869Z,32.30
2018-11-28T09:52:57.669Z,31.10
2018-11-28T09:53:57.655Z,30.60
2018-11-28T09:54:57.653Z,29.90
2018-11-28T09:55:57.668Z,28.90
2018-11-28T09:56:57.669Z,29.80
2018-11-28T09:57:57.650Z,30.50
2018-11-28T09:58:57.630Z,29.90
2018-11-28T09:59:57.637Z,29.40
2018-11-28T10:00:57.633Z,30.20
2018-11-28T10:01:57.630Z,29.70
2018-11-28T10:02:57.613Z,30.60
2018-11-28T10:03:57.608Z,28.10
2018-11-28T10:05:02.574Z,30.40
2018-11-28T10:05:57.597Z,28.30
2018-11-28T10:06:57.593Z,29.90
2018-11-28T10:07:57.588Z,27.70
2018-11-28T10:08:57.582Z,32.70
2018-11-28T10:09:57.579Z,30.60
2018-11-28T10:10:57.571Z,31.40
2018-11-28T10:11:57.565Z,29.20
2018-11-28T10:12:57.589Z,28.80
2018-11-28T10:13:57.570Z,30.40
2018-11-28T10:14:57.555Z,30.00
2018-11-28T10:15:57.562Z,30.20
2018-11-28T10:16:57.919Z,29.60
2018-11-28T10:17:57.538Z,28.70
2018-11-28T10:18:57.553Z,28.40
2018-11-28T10:19:57.547Z,29.90
2018-11-28T10:20:57.522Z,30.20
2018-11-28T10:21:57.732Z,29.90
2018-11-28T10:22:57.513Z,30.80
2018-11-28T10:23:57.514Z,30.10
2018-11-28T10:24:57.501Z,31.20
2018-11-28T10:25:57.500Z,31.30
2018-11-28T10:26:57.505Z,30.90
2018-11-28T10:27:57.703Z,30.30
2018-11-28T10:28:57.485Z,31.90
2018-11-28T10:29:57.682Z,31.40
2018-11-28T10:30:57.473Z,30.50
2018-11-28T10:31:57.480Z,32.70
2018-11-28T10:32:57.498Z,29.10
2018-11-28T10:33:57.461Z,29.30
2018-11-28T10:34:57.469Z,28.80
2018-11-28T10:35:57.452Z,28.50
2018-11-28T10:36:57.489Z,27.60
2018-11-28T10:37:57.451Z,30.70
2018-11-28T10:38:57.441Z,32.00
2018-11-28T10:39:57.445Z,30.30
2018-11-28T10:40:57.439Z,28.30
2018-11-28T10:41:57.431Z,28.00
2018-11-28T10:42:57.439Z,30.00
2018-11-28T10:43:57.423Z,30.00
2018-11-28T10:44:57.419Z,29.10
2018-11-28T10:45:57.418Z,29.50
2018-11-28T10:46:57.401Z,28.40
2018-11-28T10:47:57.419Z,27.90
2018-11-28T10:48:57.388Z,30.50
2018-11-28T10:49:57.383Z,30.10
2018-11-28T10:50:57.395Z,28.20
2018-11-28T10:51:57.376Z,29.70
2018-11-28T10:52:57.382Z,27.50
2018-11-28T10:53:57.419Z,29.70
2018-11-28T10:54:57.361Z,29.80
2018-11-28T10:55:57.367Z,30.10
2018-11-28T10:56:57.370Z,29.80
2018-11-28T10:57:57.363Z,30.10
2018-11-28T10:58:57.340Z,29.00
2018-11-28T10:59:57.340Z,28.50
2018-11-28T11:00:57.381Z,29.30
2018-11-28T11:01:57.339Z,27.80
2018-11-28T11:02:57.320Z,30.50
2018-11-28T11:03:57.328Z,26.90
2018-11-28T11:04:57.334Z,27.20
2018-11-28T11:05:57.319Z,29.30
2018-11-28T11:06:57.312Z,27.50
2018-11-28T11:07:57.308Z,27.40
2018-11-28T11:08:57.329Z,27.40
2018-11-28T11:09:57.287Z,29.40
2018-11-28T11:10:57.310Z,28.40
2018-11-28T11:11:57.279Z,29.80
2018-11-28T11:12:57.292Z,27.00
2018-11-28T11:13:57.270Z,29.10
2018-11-28T11:14:57.278Z,28.10
2018-11-28T11:15:57.279Z,28.00
2018-11-28T11:16:57.256Z,28.10
2018-11-28T11:18:02.134Z,28.10
2018-11-28T11:18:57.245Z,27.40
2018-11-28T11:19:57.241Z,28.10
2018-11-28T11:20:57.239Z,28.10
2018-11-28T11:21:57.235Z,27.80
2018-11-28T11:22:57.227Z,26.70
2018-11-28T11:23:57.238Z,26.30
2018-11-28T11:24:57.232Z,30.60
2018-11-28T11:25:57.219Z,26.70
2018-11-28T11:26:57.221Z,27.70
2018-11-28T11:27:57.215Z,28.70
2018-11-28T11:28:57.216Z,25.70
2018-11-28T11:29:57.223Z,27.90
2018-11-28T11:30:57.205Z,25.40
2018-11-28T11:31:57.201Z,26.40
2018-11-28T11:32:57.183Z,28.90
2018-11-28T11:33:57.212Z,28.00
2018-11-28T11:34:57.171Z,27.40
2018-11-28T11:35:57.171Z,27.10
2018-11-28T11:36:57.176Z,25.80
2018-11-28T11:37:57.158Z,24.70
2018-11-28T11:38:57.168Z,26.40
2018-11-28T11:39:57.372Z,24.90
2018-11-28T11:40:57.159Z,26.60
2018-11-28T11:41:57.154Z,27.40
2018-11-28T11:42:57.134Z,27.20
2018-11-28T11:43:57.141Z,24.50
2018-11-28T11:44:57.139Z,27.60
2018-11-28T11:45:57.120Z,26.50
2018-11-28T11:46:57.140Z,26.50
2018-11-28T11:47:57.112Z,26.90
2018-11-28T11:48:57.117Z,28.10
2018-11-28T11:49:57.128Z,28.50
2018-11-28T11:50:57.114Z,26.10
2018-11-28T11:51:57.104Z,27.90
2018-11-28T11:52:57.098Z,27.70
2018-11-28T11:53:57.095Z,24.90
2018-11-28T11:54:57.078Z,26.30
2018-11-28T11:55:57.094Z,25.40
2018-11-28T11:56:57.082Z,24.50
2018-11-28T11:57:57.281Z,26.30
2018-11-28T11:58:57.265Z,24.10
2018-11-28T11:59:57.056Z,26.10
2018-11-28T12:00:57.063Z,25.30
2018-11-28T12:01:57.059Z,26.60
2018-11-28T12:02:57.052Z,24.50
2018-11-28T12:03:57.099Z,23.60
2018-11-28T12:04:57.046Z,25.10
2018-11-28T12:05:57.030Z,25.70
2018-11-28T12:06:57.039Z,25.90
2018-11-28T12:07:57.023Z,24.90
2018-11-28T12:08:57.092Z,26.00
2018-11-28T12:09:57.007Z,25.00
2018-11-28T12:10:57.005Z,25.10
2018-11-28T12:11:56.998Z,25.40
2018-11-28T12:12:56.995Z,25.00
2018-11-28T12:13:57.190Z,24.20
2018-11-28T12:14:56.986Z,24.20
2018-11-28T12:15:57.038Z,24.40
2018-11-28T12:16:56.977Z,25.20
2018-11-28T12:17:56.981Z,25.60
2018-11-28T12:18:56.979Z,24.80
2018-11-28T12:19:57.166Z,27.20
2018-11-28T12:20:56.956Z,25.70
2018-11-28T12:21:56.963Z,26.30
2018-11-28T12:22:56.962Z,26.20
2018-11-28T12:23:57.161Z,25.00
2018-11-28T12:24:56.942Z,23.40
2018-11-28T12:25:56.945Z,26.20
2018-11-28T12:26:56.940Z,24.00
2018-11-28T12:27:56.936Z,22.70
2018-11-28T12:28:56.934Z,23.10
2018-11-28T12:29:57.117Z,24.90
2018-11-28T12:30:56.915Z,24.90
2018-11-28T12:31:57.109Z,24.20
2018-11-28T12:32:56.903Z,24.40
2018-11-28T12:33:56.911Z,24.20
2018-11-28T12:34:56.907Z,24.10
2018-11-28T12:35:56.890Z,25.90
2018-11-28T12:36:56.895Z,25.80
2018-11-28T12:37:56.889Z,25.40
2018-11-28T12:38:56.875Z,22.60
2018-11-28T12:39:56.870Z,23.60
2018-11-28T12:40:56.867Z,23.40
2018-11-28T12:41:56.889Z,23.30
2018-11-28T12:42:56.871Z,25.00
2018-11-28T12:43:56.864Z,23.60
2018-11-28T12:44:56.850Z,22.60
2018-11-28T12:45:56.855Z,23.00
2018-11-28T12:46:56.856Z,22.30
2018-11-28T12:47:56.855Z,23.30
2018-11-28T12:48:56.864Z,22.70
2018-11-28T12:49:56.842Z,21.90
2018-11-28T12:50:56.847Z,21.60
2018-11-28T12:51:56.829Z,24.50
2018-11-28T12:52:56.828Z,23.30
2018-11-28T12:53:57.023Z,22.90